<?xml version="1.0" encoding="UTF-8" standalone="no" ?>
<gpx xmlns="http://www.topografix.com/GPX/1/1" xmlns:xsi="http://www.w3.org/2001/XMLSchema-instance" xsi:schemaLocation="http://www.topografix.com/GPX/1/1 http://www.topografix.com/GPX/1/1/gpx.xsd" version="1.1" creator="VisuGPX - https://www.visugpx.com">
  <metadata>
    <name>Sortie Moto</name>
  </metadata>
  <trk>
    <name><![CDATA[Journal actif: 2020-05-07 18:21]]></name>
    <trkseg>
      <trkpt lat="46.06909" lon="6.30221">
        <ele>581.73</ele>
        <time>2020-05-07T16:21:05Z</time>
      </trkpt>
      <trkpt lat="46.06969" lon="6.30178">
        <ele>584.14</ele>
        <time>2020-05-07T16:21:09Z</time>
      </trkpt>
      <trkpt lat="46.0698" lon="6.30169">
        <ele>584.14</ele>
        <time>2020-05-07T16:21:10Z</time>
      </trkpt>
      <trkpt lat="46.07045" lon="6.30076">
        <ele>589.43</ele>
        <time>2020-05-07T16:21:18Z</time>
      </trkpt>
      <trkpt lat="46.07055" lon="6.30062">
        <ele>590.39</ele>
        <time>2020-05-07T16:21:20Z</time>
      </trkpt>
      <trkpt lat="46.07059" lon="6.30058">
        <ele>590.87</ele>
        <time>2020-05-07T16:21:21Z</time>
      </trkpt>
      <trkpt lat="46.07063" lon="6.30055">
        <ele>591.35</ele>
        <time>2020-05-07T16:21:22Z</time>
      </trkpt>
      <trkpt lat="46.07078" lon="6.30057">
        <ele>592.31</ele>
        <time>2020-05-07T16:21:23Z</time>
      </trkpt>
      <trkpt lat="46.07078" lon="6.30057">
        <ele>592.79</ele>
        <time>2020-05-07T16:21:24Z</time>
      </trkpt>
      <trkpt lat="46.07082" lon="6.30058">
        <ele>593.27</ele>
        <time>2020-05-07T16:21:25Z</time>
      </trkpt>
      <trkpt lat="46.07091" lon="6.30055">
        <ele>593.27</ele>
        <time>2020-05-07T16:21:26Z</time>
      </trkpt>
      <trkpt lat="46.07096" lon="6.30042">
        <ele>593.75</ele>
        <time>2020-05-07T16:21:27Z</time>
      </trkpt>
      <trkpt lat="46.07166" lon="6.29983">
        <ele>595.67</ele>
        <time>2020-05-07T16:21:33Z</time>
      </trkpt>
      <trkpt lat="46.07197" lon="6.29958">
        <ele>596.64</ele>
        <time>2020-05-07T16:21:36Z</time>
      </trkpt>
      <trkpt lat="46.07207" lon="6.29949">
        <ele>596.64</ele>
        <time>2020-05-07T16:21:37Z</time>
      </trkpt>
      <trkpt lat="46.0723" lon="6.29931">
        <ele>591.83</ele>
        <time>2020-05-07T16:21:39Z</time>
      </trkpt>
      <trkpt lat="46.07271" lon="6.29899">
        <ele>591.83</ele>
        <time>2020-05-07T16:21:43Z</time>
      </trkpt>
      <trkpt lat="46.07282" lon="6.2989">
        <ele>593.27</ele>
        <time>2020-05-07T16:21:44Z</time>
      </trkpt>
      <trkpt lat="46.07291" lon="6.29883">
        <ele>594.71</ele>
        <time>2020-05-07T16:21:45Z</time>
      </trkpt>
      <trkpt lat="46.07333" lon="6.2985">
        <ele>599.52</ele>
        <time>2020-05-07T16:21:52Z</time>
      </trkpt>
      <trkpt lat="46.07392" lon="6.29807">
        <ele>601.44</ele>
        <time>2020-05-07T16:21:59Z</time>
      </trkpt>
      <trkpt lat="46.07493" lon="6.29745">
        <ele>598.08</ele>
        <time>2020-05-07T16:22:07Z</time>
      </trkpt>
      <trkpt lat="46.0752" lon="6.29736">
        <ele>597.6</ele>
        <time>2020-05-07T16:22:09Z</time>
      </trkpt>
      <trkpt lat="46.07535" lon="6.29736">
        <ele>597.12</ele>
        <time>2020-05-07T16:22:10Z</time>
      </trkpt>
      <trkpt lat="46.0755" lon="6.29737">
        <ele>596.64</ele>
        <time>2020-05-07T16:22:11Z</time>
      </trkpt>
      <trkpt lat="46.07565" lon="6.29738">
        <ele>596.15</ele>
        <time>2020-05-07T16:22:12Z</time>
      </trkpt>
      <trkpt lat="46.0758" lon="6.29743">
        <ele>596.15</ele>
        <time>2020-05-07T16:22:13Z</time>
      </trkpt>
      <trkpt lat="46.07595" lon="6.2975">
        <ele>595.19</ele>
        <time>2020-05-07T16:22:14Z</time>
      </trkpt>
      <trkpt lat="46.07625" lon="6.29761">
        <ele>593.75</ele>
        <time>2020-05-07T16:22:16Z</time>
      </trkpt>
      <trkpt lat="46.07642" lon="6.29761">
        <ele>593.27</ele>
        <time>2020-05-07T16:22:17Z</time>
      </trkpt>
      <trkpt lat="46.07658" lon="6.29761">
        <ele>592.31</ele>
        <time>2020-05-07T16:22:18Z</time>
      </trkpt>
      <trkpt lat="46.07674" lon="6.29755">
        <ele>591.83</ele>
        <time>2020-05-07T16:22:19Z</time>
      </trkpt>
      <trkpt lat="46.07689" lon="6.29745">
        <ele>590.87</ele>
        <time>2020-05-07T16:22:20Z</time>
      </trkpt>
      <trkpt lat="46.07705" lon="6.29735">
        <ele>589.43</ele>
        <time>2020-05-07T16:22:21Z</time>
      </trkpt>
      <trkpt lat="46.07748" lon="6.29708">
        <ele>586.06</ele>
        <time>2020-05-07T16:22:24Z</time>
      </trkpt>
      <trkpt lat="46.07765" lon="6.29695">
        <ele>585.1</ele>
        <time>2020-05-07T16:22:25Z</time>
      </trkpt>
      <trkpt lat="46.07796" lon="6.29669">
        <ele>584.14</ele>
        <time>2020-05-07T16:22:28Z</time>
      </trkpt>
      <trkpt lat="46.07802" lon="6.29661">
        <ele>584.14</ele>
        <time>2020-05-07T16:22:29Z</time>
      </trkpt>
      <trkpt lat="46.07807" lon="6.29655">
        <ele>584.62</ele>
        <time>2020-05-07T16:22:30Z</time>
      </trkpt>
      <trkpt lat="46.07812" lon="6.29649">
        <ele>585.1</ele>
        <time>2020-05-07T16:22:31Z</time>
      </trkpt>
      <trkpt lat="46.07816" lon="6.29643">
        <ele>585.1</ele>
        <time>2020-05-07T16:22:32Z</time>
      </trkpt>
      <trkpt lat="46.07818" lon="6.29637">
        <ele>585.1</ele>
        <time>2020-05-07T16:22:33Z</time>
      </trkpt>
      <trkpt lat="46.07821" lon="6.29632">
        <ele>585.58</ele>
        <time>2020-05-07T16:22:34Z</time>
      </trkpt>
      <trkpt lat="46.07818" lon="6.29623">
        <ele>585.58</ele>
        <time>2020-05-07T16:22:35Z</time>
      </trkpt>
      <trkpt lat="46.07813" lon="6.2962">
        <ele>586.06</ele>
        <time>2020-05-07T16:22:36Z</time>
      </trkpt>
      <trkpt lat="46.07807" lon="6.29617">
        <ele>586.54</ele>
        <time>2020-05-07T16:22:37Z</time>
      </trkpt>
      <trkpt lat="46.07801" lon="6.29618">
        <ele>586.54</ele>
        <time>2020-05-07T16:22:38Z</time>
      </trkpt>
      <trkpt lat="46.07794" lon="6.29623">
        <ele>587.5</ele>
        <time>2020-05-07T16:22:39Z</time>
      </trkpt>
      <trkpt lat="46.07785" lon="6.2963">
        <ele>588.46</ele>
        <time>2020-05-07T16:22:40Z</time>
      </trkpt>
      <trkpt lat="46.07776" lon="6.29637">
        <ele>588.95</ele>
        <time>2020-05-07T16:22:41Z</time>
      </trkpt>
      <trkpt lat="46.07759" lon="6.29649">
        <ele>590.39</ele>
        <time>2020-05-07T16:22:43Z</time>
      </trkpt>
      <trkpt lat="46.07751" lon="6.29649">
        <ele>590.87</ele>
        <time>2020-05-07T16:22:44Z</time>
      </trkpt>
      <trkpt lat="46.07744" lon="6.29646">
        <ele>591.35</ele>
        <time>2020-05-07T16:22:45Z</time>
      </trkpt>
      <trkpt lat="46.07736" lon="6.29642">
        <ele>591.83</ele>
        <time>2020-05-07T16:22:46Z</time>
      </trkpt>
      <trkpt lat="46.07728" lon="6.29638">
        <ele>592.31</ele>
        <time>2020-05-07T16:22:47Z</time>
      </trkpt>
      <trkpt lat="46.07719" lon="6.29625">
        <ele>593.27</ele>
        <time>2020-05-07T16:22:48Z</time>
      </trkpt>
      <trkpt lat="46.07714" lon="6.29609">
        <ele>594.23</ele>
        <time>2020-05-07T16:22:49Z</time>
      </trkpt>
      <trkpt lat="46.07707" lon="6.29589">
        <ele>595.19</ele>
        <time>2020-05-07T16:22:50Z</time>
      </trkpt>
      <trkpt lat="46.07672" lon="6.29489">
        <ele>599.04</ele>
        <time>2020-05-07T16:22:53Z</time>
      </trkpt>
      <trkpt lat="46.07574" lon="6.29274">
        <ele>610.09</ele>
        <time>2020-05-07T16:22:59Z</time>
      </trkpt>
      <trkpt lat="46.07501" lon="6.29134">
        <ele>619.71</ele>
        <time>2020-05-07T16:23:04Z</time>
      </trkpt>
      <trkpt lat="46.07459" lon="6.28987">
        <ele>627.4</ele>
        <time>2020-05-07T16:23:10Z</time>
      </trkpt>
      <trkpt lat="46.07448" lon="6.28964">
        <ele>628.36</ele>
        <time>2020-05-07T16:23:11Z</time>
      </trkpt>
      <trkpt lat="46.07435" lon="6.28943">
        <ele>628.84</ele>
        <time>2020-05-07T16:23:12Z</time>
      </trkpt>
      <trkpt lat="46.07421" lon="6.28922">
        <ele>629.32</ele>
        <time>2020-05-07T16:23:13Z</time>
      </trkpt>
      <trkpt lat="46.07407" lon="6.28902">
        <ele>630.28</ele>
        <time>2020-05-07T16:23:14Z</time>
      </trkpt>
      <trkpt lat="46.07391" lon="6.28885">
        <ele>630.76</ele>
        <time>2020-05-07T16:23:15Z</time>
      </trkpt>
      <trkpt lat="46.07373" lon="6.28871">
        <ele>631.72</ele>
        <time>2020-05-07T16:23:16Z</time>
      </trkpt>
      <trkpt lat="46.07354" lon="6.28859">
        <ele>632.68</ele>
        <time>2020-05-07T16:23:17Z</time>
      </trkpt>
      <trkpt lat="46.07335" lon="6.2885">
        <ele>633.17</ele>
        <time>2020-05-07T16:23:18Z</time>
      </trkpt>
      <trkpt lat="46.07315" lon="6.28842">
        <ele>633.65</ele>
        <time>2020-05-07T16:23:19Z</time>
      </trkpt>
      <trkpt lat="46.07295" lon="6.28836">
        <ele>634.61</ele>
        <time>2020-05-07T16:23:20Z</time>
      </trkpt>
      <trkpt lat="46.07274" lon="6.28833">
        <ele>635.57</ele>
        <time>2020-05-07T16:23:21Z</time>
      </trkpt>
      <trkpt lat="46.07252" lon="6.2883">
        <ele>636.05</ele>
        <time>2020-05-07T16:23:22Z</time>
      </trkpt>
      <trkpt lat="46.07061" lon="6.28809">
        <ele>647.1</ele>
        <time>2020-05-07T16:23:31Z</time>
      </trkpt>
      <trkpt lat="46.07003" lon="6.28784">
        <ele>650.95</ele>
        <time>2020-05-07T16:23:34Z</time>
      </trkpt>
      <trkpt lat="46.06983" lon="6.2877">
        <ele>652.39</ele>
        <time>2020-05-07T16:23:35Z</time>
      </trkpt>
      <trkpt lat="46.06852" lon="6.28686">
        <ele>660.08</ele>
        <time>2020-05-07T16:23:41Z</time>
      </trkpt>
      <trkpt lat="46.06829" lon="6.2868">
        <ele>661.52</ele>
        <time>2020-05-07T16:23:42Z</time>
      </trkpt>
      <trkpt lat="46.06806" lon="6.28674">
        <ele>662.49</ele>
        <time>2020-05-07T16:23:43Z</time>
      </trkpt>
      <trkpt lat="46.06782" lon="6.28674">
        <ele>663.93</ele>
        <time>2020-05-07T16:23:44Z</time>
      </trkpt>
      <trkpt lat="46.0676" lon="6.28678">
        <ele>664.89</ele>
        <time>2020-05-07T16:23:45Z</time>
      </trkpt>
      <trkpt lat="46.06737" lon="6.28682">
        <ele>665.85</ele>
        <time>2020-05-07T16:23:46Z</time>
      </trkpt>
      <trkpt lat="46.06715" lon="6.28692">
        <ele>666.33</ele>
        <time>2020-05-07T16:23:47Z</time>
      </trkpt>
      <trkpt lat="46.06552" lon="6.28791">
        <ele>674.02</ele>
        <time>2020-05-07T16:23:55Z</time>
      </trkpt>
      <trkpt lat="46.06482" lon="6.28825">
        <ele>678.83</ele>
        <time>2020-05-07T16:24:00Z</time>
      </trkpt>
      <trkpt lat="46.06473" lon="6.28828">
        <ele>679.31</ele>
        <time>2020-05-07T16:24:01Z</time>
      </trkpt>
      <trkpt lat="46.06465" lon="6.2883">
        <ele>680.27</ele>
        <time>2020-05-07T16:24:02Z</time>
      </trkpt>
      <trkpt lat="46.06452" lon="6.28819">
        <ele>680.75</ele>
        <time>2020-05-07T16:24:03Z</time>
      </trkpt>
      <trkpt lat="46.06448" lon="6.28818">
        <ele>681.23</ele>
        <time>2020-05-07T16:24:04Z</time>
      </trkpt>
      <trkpt lat="46.06438" lon="6.28817">
        <ele>681.71</ele>
        <time>2020-05-07T16:24:05Z</time>
      </trkpt>
      <trkpt lat="46.0643" lon="6.28824">
        <ele>681.71</ele>
        <time>2020-05-07T16:24:06Z</time>
      </trkpt>
      <trkpt lat="46.0642" lon="6.28838">
        <ele>681.71</ele>
        <time>2020-05-07T16:24:07Z</time>
      </trkpt>
      <trkpt lat="46.06406" lon="6.2884">
        <ele>682.67</ele>
        <time>2020-05-07T16:24:09Z</time>
      </trkpt>
      <trkpt lat="46.06262" lon="6.28876">
        <ele>689.4</ele>
        <time>2020-05-07T16:24:15Z</time>
      </trkpt>
      <trkpt lat="46.0599" lon="6.28967">
        <ele>706.71</ele>
        <time>2020-05-07T16:24:27Z</time>
      </trkpt>
      <trkpt lat="46.05806" lon="6.29008">
        <ele>717.28</ele>
        <time>2020-05-07T16:24:35Z</time>
      </trkpt>
      <trkpt lat="46.05783" lon="6.29004">
        <ele>718.72</ele>
        <time>2020-05-07T16:24:36Z</time>
      </trkpt>
      <trkpt lat="46.05759" lon="6.28997">
        <ele>720.16</ele>
        <time>2020-05-07T16:24:37Z</time>
      </trkpt>
      <trkpt lat="46.05735" lon="6.28989">
        <ele>721.13</ele>
        <time>2020-05-07T16:24:38Z</time>
      </trkpt>
      <trkpt lat="46.05713" lon="6.28974">
        <ele>722.57</ele>
        <time>2020-05-07T16:24:39Z</time>
      </trkpt>
      <trkpt lat="46.05692" lon="6.28959">
        <ele>723.53</ele>
        <time>2020-05-07T16:24:40Z</time>
      </trkpt>
      <trkpt lat="46.0567" lon="6.28941">
        <ele>724.97</ele>
        <time>2020-05-07T16:24:41Z</time>
      </trkpt>
      <trkpt lat="46.05651" lon="6.2892">
        <ele>725.93</ele>
        <time>2020-05-07T16:24:42Z</time>
      </trkpt>
      <trkpt lat="46.05634" lon="6.28893">
        <ele>727.37</ele>
        <time>2020-05-07T16:24:43Z</time>
      </trkpt>
      <trkpt lat="46.05618" lon="6.28867">
        <ele>728.82</ele>
        <time>2020-05-07T16:24:44Z</time>
      </trkpt>
      <trkpt lat="46.05603" lon="6.2884">
        <ele>729.78</ele>
        <time>2020-05-07T16:24:45Z</time>
      </trkpt>
      <trkpt lat="46.05591" lon="6.2881">
        <ele>731.22</ele>
        <time>2020-05-07T16:24:46Z</time>
      </trkpt>
      <trkpt lat="46.05579" lon="6.28779">
        <ele>732.18</ele>
        <time>2020-05-07T16:24:47Z</time>
      </trkpt>
      <trkpt lat="46.05566" lon="6.28748">
        <ele>733.62</ele>
        <time>2020-05-07T16:24:48Z</time>
      </trkpt>
      <trkpt lat="46.05431" lon="6.28357">
        <ele>742.76</ele>
        <time>2020-05-07T16:25:01Z</time>
      </trkpt>
      <trkpt lat="46.05266" lon="6.27888">
        <ele>752.37</ele>
        <time>2020-05-07T16:25:17Z</time>
      </trkpt>
      <trkpt lat="46.05169" lon="6.27578">
        <ele>757.18</ele>
        <time>2020-05-07T16:25:28Z</time>
      </trkpt>
      <trkpt lat="46.05131" lon="6.2734">
        <ele>761.5</ele>
        <time>2020-05-07T16:25:36Z</time>
      </trkpt>
      <trkpt lat="46.05126" lon="6.27121">
        <ele>768.71</ele>
        <time>2020-05-07T16:25:41Z</time>
      </trkpt>
      <trkpt lat="46.05146" lon="6.26885">
        <ele>773.52</ele>
        <time>2020-05-07T16:25:48Z</time>
      </trkpt>
      <trkpt lat="46.05146" lon="6.26788">
        <ele>774.48</ele>
        <time>2020-05-07T16:25:51Z</time>
      </trkpt>
      <trkpt lat="46.05142" lon="6.26756">
        <ele>774.96</ele>
        <time>2020-05-07T16:25:52Z</time>
      </trkpt>
      <trkpt lat="46.05136" lon="6.26724">
        <ele>775.44</ele>
        <time>2020-05-07T16:25:53Z</time>
      </trkpt>
      <trkpt lat="46.05128" lon="6.26693">
        <ele>775.44</ele>
        <time>2020-05-07T16:25:54Z</time>
      </trkpt>
      <trkpt lat="46.05119" lon="6.26658">
        <ele>775.92</ele>
        <time>2020-05-07T16:25:55Z</time>
      </trkpt>
      <trkpt lat="46.05109" lon="6.26632">
        <ele>776.88</ele>
        <time>2020-05-07T16:25:56Z</time>
      </trkpt>
      <trkpt lat="46.05096" lon="6.26604">
        <ele>777.84</ele>
        <time>2020-05-07T16:25:57Z</time>
      </trkpt>
      <trkpt lat="46.05081" lon="6.26578">
        <ele>778.81</ele>
        <time>2020-05-07T16:25:58Z</time>
      </trkpt>
      <trkpt lat="46.05065" lon="6.26553">
        <ele>779.77</ele>
        <time>2020-05-07T16:25:59Z</time>
      </trkpt>
      <trkpt lat="46.05047" lon="6.26531">
        <ele>780.73</ele>
        <time>2020-05-07T16:26:00Z</time>
      </trkpt>
      <trkpt lat="46.05027" lon="6.26511">
        <ele>782.17</ele>
        <time>2020-05-07T16:26:01Z</time>
      </trkpt>
      <trkpt lat="46.05007" lon="6.26491">
        <ele>783.61</ele>
        <time>2020-05-07T16:26:02Z</time>
      </trkpt>
      <trkpt lat="46.04986" lon="6.26472">
        <ele>784.57</ele>
        <time>2020-05-07T16:26:03Z</time>
      </trkpt>
      <trkpt lat="46.04874" lon="6.26365">
        <ele>790.82</ele>
        <time>2020-05-07T16:26:08Z</time>
      </trkpt>
      <trkpt lat="46.04856" lon="6.26337">
        <ele>791.78</ele>
        <time>2020-05-07T16:26:09Z</time>
      </trkpt>
      <trkpt lat="46.04839" lon="6.26307">
        <ele>792.74</ele>
        <time>2020-05-07T16:26:10Z</time>
      </trkpt>
      <trkpt lat="46.04713" lon="6.26045">
        <ele>801.4</ele>
        <time>2020-05-07T16:26:19Z</time>
      </trkpt>
      <trkpt lat="46.04577" lon="6.25769">
        <ele>805.24</ele>
        <time>2020-05-07T16:26:31Z</time>
      </trkpt>
      <trkpt lat="46.04467" lon="6.25533">
        <ele>808.13</ele>
        <time>2020-05-07T16:26:39Z</time>
      </trkpt>
      <trkpt lat="46.04453" lon="6.25502">
        <ele>807.64</ele>
        <time>2020-05-07T16:26:40Z</time>
      </trkpt>
      <trkpt lat="46.04444" lon="6.25468">
        <ele>807.64</ele>
        <time>2020-05-07T16:26:41Z</time>
      </trkpt>
      <trkpt lat="46.04382" lon="6.25206">
        <ele>803.32</ele>
        <time>2020-05-07T16:26:49Z</time>
      </trkpt>
      <trkpt lat="46.04346" lon="6.25087">
        <ele>799.95</ele>
        <time>2020-05-07T16:26:53Z</time>
      </trkpt>
      <trkpt lat="46.04333" lon="6.25061">
        <ele>798.99</ele>
        <time>2020-05-07T16:26:54Z</time>
      </trkpt>
      <trkpt lat="46.0432" lon="6.25035">
        <ele>797.55</ele>
        <time>2020-05-07T16:26:55Z</time>
      </trkpt>
      <trkpt lat="46.04306" lon="6.25006">
        <ele>796.11</ele>
        <time>2020-05-07T16:26:56Z</time>
      </trkpt>
      <trkpt lat="46.04293" lon="6.24988">
        <ele>794.67</ele>
        <time>2020-05-07T16:26:57Z</time>
      </trkpt>
      <trkpt lat="46.04133" lon="6.24776">
        <ele>789.86</ele>
        <time>2020-05-07T16:27:08Z</time>
      </trkpt>
      <trkpt lat="46.04088" lon="6.24739">
        <ele>792.26</ele>
        <time>2020-05-07T16:27:11Z</time>
      </trkpt>
      <trkpt lat="46.04072" lon="6.24729">
        <ele>792.74</ele>
        <time>2020-05-07T16:27:12Z</time>
      </trkpt>
      <trkpt lat="46.04056" lon="6.24722">
        <ele>793.22</ele>
        <time>2020-05-07T16:27:13Z</time>
      </trkpt>
      <trkpt lat="46.03947" lon="6.2468">
        <ele>795.63</ele>
        <time>2020-05-07T16:27:19Z</time>
      </trkpt>
      <trkpt lat="46.03929" lon="6.24666">
        <ele>795.63</ele>
        <time>2020-05-07T16:27:20Z</time>
      </trkpt>
      <trkpt lat="46.03912" lon="6.24649">
        <ele>795.63</ele>
        <time>2020-05-07T16:27:21Z</time>
      </trkpt>
      <trkpt lat="46.03896" lon="6.24633">
        <ele>795.15</ele>
        <time>2020-05-07T16:27:22Z</time>
      </trkpt>
      <trkpt lat="46.03881" lon="6.24612">
        <ele>795.15</ele>
        <time>2020-05-07T16:27:23Z</time>
      </trkpt>
      <trkpt lat="46.03867" lon="6.24591">
        <ele>794.19</ele>
        <time>2020-05-07T16:27:24Z</time>
      </trkpt>
      <trkpt lat="46.03856" lon="6.24567">
        <ele>793.71</ele>
        <time>2020-05-07T16:27:25Z</time>
      </trkpt>
      <trkpt lat="46.03846" lon="6.24542">
        <ele>793.22</ele>
        <time>2020-05-07T16:27:26Z</time>
      </trkpt>
      <trkpt lat="46.03838" lon="6.24514">
        <ele>792.74</ele>
        <time>2020-05-07T16:27:27Z</time>
      </trkpt>
      <trkpt lat="46.0383" lon="6.24481">
        <ele>791.78</ele>
        <time>2020-05-07T16:27:28Z</time>
      </trkpt>
      <trkpt lat="46.03795" lon="6.24312">
        <ele>786.5</ele>
        <time>2020-05-07T16:27:32Z</time>
      </trkpt>
      <trkpt lat="46.03784" lon="6.24274">
        <ele>785.05</ele>
        <time>2020-05-07T16:27:33Z</time>
      </trkpt>
      <trkpt lat="46.03771" lon="6.24238">
        <ele>783.61</ele>
        <time>2020-05-07T16:27:34Z</time>
      </trkpt>
      <trkpt lat="46.03756" lon="6.24204">
        <ele>782.17</ele>
        <time>2020-05-07T16:27:35Z</time>
      </trkpt>
      <trkpt lat="46.03737" lon="6.24175">
        <ele>780.25</ele>
        <time>2020-05-07T16:27:36Z</time>
      </trkpt>
      <trkpt lat="46.03719" lon="6.24147">
        <ele>778.32</ele>
        <time>2020-05-07T16:27:37Z</time>
      </trkpt>
      <trkpt lat="46.03702" lon="6.24123">
        <ele>776.4</ele>
        <time>2020-05-07T16:27:38Z</time>
      </trkpt>
      <trkpt lat="46.03681" lon="6.24104">
        <ele>774.48</ele>
        <time>2020-05-07T16:27:39Z</time>
      </trkpt>
      <trkpt lat="46.03662" lon="6.24087">
        <ele>773.04</ele>
        <time>2020-05-07T16:27:40Z</time>
      </trkpt>
      <trkpt lat="46.03639" lon="6.24075">
        <ele>771.11</ele>
        <time>2020-05-07T16:27:41Z</time>
      </trkpt>
      <trkpt lat="46.03616" lon="6.24073">
        <ele>770.15</ele>
        <time>2020-05-07T16:27:42Z</time>
      </trkpt>
      <trkpt lat="46.03593" lon="6.24071">
        <ele>769.19</ele>
        <time>2020-05-07T16:27:43Z</time>
      </trkpt>
      <trkpt lat="46.03572" lon="6.24078">
        <ele>768.23</ele>
        <time>2020-05-07T16:27:44Z</time>
      </trkpt>
      <trkpt lat="46.0355" lon="6.24088">
        <ele>767.27</ele>
        <time>2020-05-07T16:27:45Z</time>
      </trkpt>
      <trkpt lat="46.0353" lon="6.24104">
        <ele>766.31</ele>
        <time>2020-05-07T16:27:46Z</time>
      </trkpt>
      <trkpt lat="46.03515" lon="6.24129">
        <ele>765.83</ele>
        <time>2020-05-07T16:27:47Z</time>
      </trkpt>
      <trkpt lat="46.03499" lon="6.24156">
        <ele>764.87</ele>
        <time>2020-05-07T16:27:48Z</time>
      </trkpt>
      <trkpt lat="46.03484" lon="6.2418">
        <ele>764.39</ele>
        <time>2020-05-07T16:27:49Z</time>
      </trkpt>
      <trkpt lat="46.03467" lon="6.24206">
        <ele>763.42</ele>
        <time>2020-05-07T16:27:50Z</time>
      </trkpt>
      <trkpt lat="46.03452" lon="6.24229">
        <ele>762.46</ele>
        <time>2020-05-07T16:27:51Z</time>
      </trkpt>
      <trkpt lat="46.03435" lon="6.24244">
        <ele>761.5</ele>
        <time>2020-05-07T16:27:52Z</time>
      </trkpt>
      <trkpt lat="46.03416" lon="6.24255">
        <ele>760.54</ele>
        <time>2020-05-07T16:27:53Z</time>
      </trkpt>
      <trkpt lat="46.03395" lon="6.24261">
        <ele>759.1</ele>
        <time>2020-05-07T16:27:54Z</time>
      </trkpt>
      <trkpt lat="46.03374" lon="6.24261">
        <ele>757.66</ele>
        <time>2020-05-07T16:27:55Z</time>
      </trkpt>
      <trkpt lat="46.03353" lon="6.24255">
        <ele>756.69</ele>
        <time>2020-05-07T16:27:56Z</time>
      </trkpt>
      <trkpt lat="46.03335" lon="6.24241">
        <ele>755.73</ele>
        <time>2020-05-07T16:27:57Z</time>
      </trkpt>
      <trkpt lat="46.03312" lon="6.24223">
        <ele>754.77</ele>
        <time>2020-05-07T16:27:58Z</time>
      </trkpt>
      <trkpt lat="46.03295" lon="6.24206">
        <ele>754.29</ele>
        <time>2020-05-07T16:27:59Z</time>
      </trkpt>
      <trkpt lat="46.0328" lon="6.24181">
        <ele>753.33</ele>
        <time>2020-05-07T16:28:00Z</time>
      </trkpt>
      <trkpt lat="46.03177" lon="6.24045">
        <ele>749.49</ele>
        <time>2020-05-07T16:28:06Z</time>
      </trkpt>
      <trkpt lat="46.03053" lon="6.23905">
        <ele>745.64</ele>
        <time>2020-05-07T16:28:12Z</time>
      </trkpt>
      <trkpt lat="46.0303" lon="6.23886">
        <ele>745.16</ele>
        <time>2020-05-07T16:28:13Z</time>
      </trkpt>
      <trkpt lat="46.03003" lon="6.23871">
        <ele>744.68</ele>
        <time>2020-05-07T16:28:14Z</time>
      </trkpt>
      <trkpt lat="46.02972" lon="6.23853">
        <ele>744.2</ele>
        <time>2020-05-07T16:28:15Z</time>
      </trkpt>
      <trkpt lat="46.02798" lon="6.23786">
        <ele>740.35</ele>
        <time>2020-05-07T16:28:20Z</time>
      </trkpt>
      <trkpt lat="46.02621" lon="6.23754">
        <ele>732.18</ele>
        <time>2020-05-07T16:28:26Z</time>
      </trkpt>
      <trkpt lat="46.02546" lon="6.23718">
        <ele>728.34</ele>
        <time>2020-05-07T16:28:29Z</time>
      </trkpt>
      <trkpt lat="46.02524" lon="6.23696">
        <ele>726.89</ele>
        <time>2020-05-07T16:28:30Z</time>
      </trkpt>
      <trkpt lat="46.02505" lon="6.23671">
        <ele>725.93</ele>
        <time>2020-05-07T16:28:31Z</time>
      </trkpt>
      <trkpt lat="46.02488" lon="6.23643">
        <ele>724.97</ele>
        <time>2020-05-07T16:28:32Z</time>
      </trkpt>
      <trkpt lat="46.02472" lon="6.23616">
        <ele>724.01</ele>
        <time>2020-05-07T16:28:33Z</time>
      </trkpt>
      <trkpt lat="46.02458" lon="6.23588">
        <ele>723.53</ele>
        <time>2020-05-07T16:28:34Z</time>
      </trkpt>
      <trkpt lat="46.02419" lon="6.23505">
        <ele>721.13</ele>
        <time>2020-05-07T16:28:37Z</time>
      </trkpt>
      <trkpt lat="46.02403" lon="6.23479">
        <ele>720.16</ele>
        <time>2020-05-07T16:28:38Z</time>
      </trkpt>
      <trkpt lat="46.02383" lon="6.23461">
        <ele>719.68</ele>
        <time>2020-05-07T16:28:39Z</time>
      </trkpt>
      <trkpt lat="46.02363" lon="6.23443">
        <ele>718.24</ele>
        <time>2020-05-07T16:28:40Z</time>
      </trkpt>
      <trkpt lat="46.02344" lon="6.23426">
        <ele>717.28</ele>
        <time>2020-05-07T16:28:41Z</time>
      </trkpt>
      <trkpt lat="46.02289" lon="6.23375">
        <ele>711.99</ele>
        <time>2020-05-07T16:28:44Z</time>
      </trkpt>
      <trkpt lat="46.02274" lon="6.23351">
        <ele>710.07</ele>
        <time>2020-05-07T16:28:45Z</time>
      </trkpt>
      <trkpt lat="46.02261" lon="6.23324">
        <ele>708.63</ele>
        <time>2020-05-07T16:28:46Z</time>
      </trkpt>
      <trkpt lat="46.02138" lon="6.23088">
        <ele>702.86</ele>
        <time>2020-05-07T16:28:54Z</time>
      </trkpt>
      <trkpt lat="46.02119" lon="6.23062">
        <ele>702.38</ele>
        <time>2020-05-07T16:28:55Z</time>
      </trkpt>
      <trkpt lat="46.02099" lon="6.23038">
        <ele>701.9</ele>
        <time>2020-05-07T16:28:56Z</time>
      </trkpt>
      <trkpt lat="46.0208" lon="6.23011">
        <ele>701.42</ele>
        <time>2020-05-07T16:28:57Z</time>
      </trkpt>
      <trkpt lat="46.02063" lon="6.22977">
        <ele>700.94</ele>
        <time>2020-05-07T16:28:58Z</time>
      </trkpt>
      <trkpt lat="46.02051" lon="6.22939">
        <ele>700.46</ele>
        <time>2020-05-07T16:28:59Z</time>
      </trkpt>
      <trkpt lat="46.0204" lon="6.22895">
        <ele>699.98</ele>
        <time>2020-05-07T16:29:00Z</time>
      </trkpt>
      <trkpt lat="46.02032" lon="6.22846">
        <ele>699.5</ele>
        <time>2020-05-07T16:29:01Z</time>
      </trkpt>
      <trkpt lat="46.02024" lon="6.22793">
        <ele>699.02</ele>
        <time>2020-05-07T16:29:02Z</time>
      </trkpt>
      <trkpt lat="46.01988" lon="6.22535">
        <ele>696.61</ele>
        <time>2020-05-07T16:29:07Z</time>
      </trkpt>
      <trkpt lat="46.01936" lon="6.22204">
        <ele>689.88</ele>
        <time>2020-05-07T16:29:15Z</time>
      </trkpt>
      <trkpt lat="46.01861" lon="6.21905">
        <ele>686.04</ele>
        <time>2020-05-07T16:29:23Z</time>
      </trkpt>
      <trkpt lat="46.01724" lon="6.21566">
        <ele>683.63</ele>
        <time>2020-05-07T16:29:33Z</time>
      </trkpt>
      <trkpt lat="46.01708" lon="6.21533">
        <ele>683.63</ele>
        <time>2020-05-07T16:29:34Z</time>
      </trkpt>
      <trkpt lat="46.0169" lon="6.21503">
        <ele>683.15</ele>
        <time>2020-05-07T16:29:35Z</time>
      </trkpt>
      <trkpt lat="46.01669" lon="6.21474">
        <ele>682.67</ele>
        <time>2020-05-07T16:29:36Z</time>
      </trkpt>
      <trkpt lat="46.01644" lon="6.21449">
        <ele>682.67</ele>
        <time>2020-05-07T16:29:37Z</time>
      </trkpt>
      <trkpt lat="46.01619" lon="6.21423">
        <ele>682.19</ele>
        <time>2020-05-07T16:29:38Z</time>
      </trkpt>
      <trkpt lat="46.01425" lon="6.21227">
        <ele>676.42</ele>
        <time>2020-05-07T16:29:46Z</time>
      </trkpt>
      <trkpt lat="46.01314" lon="6.21056">
        <ele>671.62</ele>
        <time>2020-05-07T16:29:51Z</time>
      </trkpt>
      <trkpt lat="46.01155" lon="6.20863">
        <ele>665.85</ele>
        <time>2020-05-07T16:29:58Z</time>
      </trkpt>
      <trkpt lat="46.00973" lon="6.20647">
        <ele>661.52</ele>
        <time>2020-05-07T16:30:06Z</time>
      </trkpt>
      <trkpt lat="46.00883" lon="6.20532">
        <ele>660.08</ele>
        <time>2020-05-07T16:30:11Z</time>
      </trkpt>
      <trkpt lat="46.00872" lon="6.20502">
        <ele>659.6</ele>
        <time>2020-05-07T16:30:12Z</time>
      </trkpt>
      <trkpt lat="46.0086" lon="6.20471">
        <ele>659.6</ele>
        <time>2020-05-07T16:30:13Z</time>
      </trkpt>
      <trkpt lat="46.0085" lon="6.20436">
        <ele>659.6</ele>
        <time>2020-05-07T16:30:14Z</time>
      </trkpt>
      <trkpt lat="46.0084" lon="6.20396">
        <ele>659.12</ele>
        <time>2020-05-07T16:30:15Z</time>
      </trkpt>
      <trkpt lat="46.00756" lon="6.20081">
        <ele>652.87</ele>
        <time>2020-05-07T16:30:22Z</time>
      </trkpt>
      <trkpt lat="46.0069" lon="6.19779">
        <ele>641.34</ele>
        <time>2020-05-07T16:30:29Z</time>
      </trkpt>
      <trkpt lat="46.00623" lon="6.196">
        <ele>633.65</ele>
        <time>2020-05-07T16:30:34Z</time>
      </trkpt>
      <trkpt lat="46.00598" lon="6.19547">
        <ele>630.76</ele>
        <time>2020-05-07T16:30:36Z</time>
      </trkpt>
      <trkpt lat="46.00581" lon="6.19526">
        <ele>629.32</ele>
        <time>2020-05-07T16:30:37Z</time>
      </trkpt>
      <trkpt lat="46.00563" lon="6.19507">
        <ele>627.88</ele>
        <time>2020-05-07T16:30:38Z</time>
      </trkpt>
      <trkpt lat="46.00527" lon="6.19474">
        <ele>623.55</ele>
        <time>2020-05-07T16:30:40Z</time>
      </trkpt>
      <trkpt lat="46.00513" lon="6.19452">
        <ele>621.63</ele>
        <time>2020-05-07T16:30:41Z</time>
      </trkpt>
      <trkpt lat="46.005" lon="6.19432">
        <ele>619.71</ele>
        <time>2020-05-07T16:30:42Z</time>
      </trkpt>
      <trkpt lat="46.00491" lon="6.19412">
        <ele>617.78</ele>
        <time>2020-05-07T16:30:43Z</time>
      </trkpt>
      <trkpt lat="46.00484" lon="6.19392">
        <ele>615.86</ele>
        <time>2020-05-07T16:30:44Z</time>
      </trkpt>
      <trkpt lat="46.0048" lon="6.19373">
        <ele>614.42</ele>
        <time>2020-05-07T16:30:45Z</time>
      </trkpt>
      <trkpt lat="46.0048" lon="6.19356">
        <ele>612.98</ele>
        <time>2020-05-07T16:30:46Z</time>
      </trkpt>
      <trkpt lat="46.00488" lon="6.19338">
        <ele>611.54</ele>
        <time>2020-05-07T16:30:47Z</time>
      </trkpt>
      <trkpt lat="46.00497" lon="6.1932">
        <ele>610.57</ele>
        <time>2020-05-07T16:30:48Z</time>
      </trkpt>
      <trkpt lat="46.00509" lon="6.19313">
        <ele>609.13</ele>
        <time>2020-05-07T16:30:49Z</time>
      </trkpt>
      <trkpt lat="46.00524" lon="6.19308">
        <ele>608.17</ele>
        <time>2020-05-07T16:30:50Z</time>
      </trkpt>
      <trkpt lat="46.00539" lon="6.19314">
        <ele>607.21</ele>
        <time>2020-05-07T16:30:51Z</time>
      </trkpt>
      <trkpt lat="46.00555" lon="6.19325">
        <ele>606.25</ele>
        <time>2020-05-07T16:30:52Z</time>
      </trkpt>
      <trkpt lat="46.00571" lon="6.19344">
        <ele>605.29</ele>
        <time>2020-05-07T16:30:53Z</time>
      </trkpt>
      <trkpt lat="46.00585" lon="6.19363">
        <ele>603.85</ele>
        <time>2020-05-07T16:30:54Z</time>
      </trkpt>
      <trkpt lat="46.00599" lon="6.19392">
        <ele>602.4</ele>
        <time>2020-05-07T16:30:55Z</time>
      </trkpt>
      <trkpt lat="46.00612" lon="6.19417">
        <ele>600.96</ele>
        <time>2020-05-07T16:30:56Z</time>
      </trkpt>
      <trkpt lat="46.00626" lon="6.19444">
        <ele>599.52</ele>
        <time>2020-05-07T16:30:57Z</time>
      </trkpt>
      <trkpt lat="46.00661" lon="6.19521">
        <ele>594.71</ele>
        <time>2020-05-07T16:31:01Z</time>
      </trkpt>
      <trkpt lat="46.00667" lon="6.19535">
        <ele>594.23</ele>
        <time>2020-05-07T16:31:02Z</time>
      </trkpt>
      <trkpt lat="46.00675" lon="6.19538">
        <ele>593.27</ele>
        <time>2020-05-07T16:31:03Z</time>
      </trkpt>
      <trkpt lat="46.00683" lon="6.19541">
        <ele>593.27</ele>
        <time>2020-05-07T16:31:04Z</time>
      </trkpt>
      <trkpt lat="46.0069" lon="6.19535">
        <ele>592.79</ele>
        <time>2020-05-07T16:31:05Z</time>
      </trkpt>
      <trkpt lat="46.00693" lon="6.19522">
        <ele>592.31</ele>
        <time>2020-05-07T16:31:06Z</time>
      </trkpt>
      <trkpt lat="46.00694" lon="6.19509">
        <ele>592.31</ele>
        <time>2020-05-07T16:31:07Z</time>
      </trkpt>
      <trkpt lat="46.0069" lon="6.19493">
        <ele>591.83</ele>
        <time>2020-05-07T16:31:08Z</time>
      </trkpt>
      <trkpt lat="46.00683" lon="6.19476">
        <ele>591.35</ele>
        <time>2020-05-07T16:31:09Z</time>
      </trkpt>
      <trkpt lat="46.00676" lon="6.19457">
        <ele>590.87</ele>
        <time>2020-05-07T16:31:10Z</time>
      </trkpt>
      <trkpt lat="46.00615" lon="6.19288">
        <ele>583.66</ele>
        <time>2020-05-07T16:31:18Z</time>
      </trkpt>
      <trkpt lat="46.00517" lon="6.19035">
        <ele>567.8</ele>
        <time>2020-05-07T16:31:30Z</time>
      </trkpt>
      <trkpt lat="46.0042" lon="6.18895">
        <ele>558.66</ele>
        <time>2020-05-07T16:31:38Z</time>
      </trkpt>
      <trkpt lat="46.0041" lon="6.18884">
        <ele>557.7</ele>
        <time>2020-05-07T16:31:39Z</time>
      </trkpt>
      <trkpt lat="46.00408" lon="6.18866">
        <ele>556.74</ele>
        <time>2020-05-07T16:31:40Z</time>
      </trkpt>
      <trkpt lat="46.00403" lon="6.18854">
        <ele>556.26</ele>
        <time>2020-05-07T16:31:41Z</time>
      </trkpt>
      <trkpt lat="46.00401" lon="6.18845">
        <ele>555.78</ele>
        <time>2020-05-07T16:31:42Z</time>
      </trkpt>
      <trkpt lat="46.00405" lon="6.18831">
        <ele>555.78</ele>
        <time>2020-05-07T16:31:43Z</time>
      </trkpt>
      <trkpt lat="46.00412" lon="6.18825">
        <ele>555.78</ele>
        <time>2020-05-07T16:31:44Z</time>
      </trkpt>
      <trkpt lat="46.00421" lon="6.1882">
        <ele>555.78</ele>
        <time>2020-05-07T16:31:45Z</time>
      </trkpt>
      <trkpt lat="46.00431" lon="6.18822">
        <ele>556.26</ele>
        <time>2020-05-07T16:31:46Z</time>
      </trkpt>
      <trkpt lat="46.00439" lon="6.18832">
        <ele>556.74</ele>
        <time>2020-05-07T16:31:47Z</time>
      </trkpt>
      <trkpt lat="46.00444" lon="6.18846">
        <ele>556.74</ele>
        <time>2020-05-07T16:31:48Z</time>
      </trkpt>
      <trkpt lat="46.00449" lon="6.18859">
        <ele>556.74</ele>
        <time>2020-05-07T16:31:49Z</time>
      </trkpt>
      <trkpt lat="46.00452" lon="6.18869">
        <ele>556.74</ele>
        <time>2020-05-07T16:31:50Z</time>
      </trkpt>
      <trkpt lat="46.00444" lon="6.18892">
        <ele>556.26</ele>
        <time>2020-05-07T16:31:51Z</time>
      </trkpt>
      <trkpt lat="46.00435" lon="6.18903">
        <ele>555.78</ele>
        <time>2020-05-07T16:31:52Z</time>
      </trkpt>
      <trkpt lat="46.00424" lon="6.18917">
        <ele>555.3</ele>
        <time>2020-05-07T16:31:53Z</time>
      </trkpt>
      <trkpt lat="46.00404" lon="6.1895">
        <ele>555.3</ele>
        <time>2020-05-07T16:31:55Z</time>
      </trkpt>
      <trkpt lat="46.00397" lon="6.18971">
        <ele>555.78</ele>
        <time>2020-05-07T16:31:56Z</time>
      </trkpt>
      <trkpt lat="46.00391" lon="6.18997">
        <ele>556.26</ele>
        <time>2020-05-07T16:31:57Z</time>
      </trkpt>
      <trkpt lat="46.00349" lon="6.19198">
        <ele>560.59</ele>
        <time>2020-05-07T16:32:03Z</time>
      </trkpt>
      <trkpt lat="46.00291" lon="6.19504">
        <ele>562.99</ele>
        <time>2020-05-07T16:32:12Z</time>
      </trkpt>
      <trkpt lat="46.0029" lon="6.19539">
        <ele>562.99</ele>
        <time>2020-05-07T16:32:13Z</time>
      </trkpt>
      <trkpt lat="46.00281" lon="6.19772">
        <ele>562.99</ele>
        <time>2020-05-07T16:32:20Z</time>
      </trkpt>
      <trkpt lat="46.00276" lon="6.19801">
        <ele>563.47</ele>
        <time>2020-05-07T16:32:21Z</time>
      </trkpt>
      <trkpt lat="46.00266" lon="6.19828">
        <ele>563.95</ele>
        <time>2020-05-07T16:32:22Z</time>
      </trkpt>
      <trkpt lat="46.00206" lon="6.19989">
        <ele>566.83</ele>
        <time>2020-05-07T16:32:29Z</time>
      </trkpt>
      <trkpt lat="46.00195" lon="6.20017">
        <ele>568.28</ele>
        <time>2020-05-07T16:32:32Z</time>
      </trkpt>
      <trkpt lat="46.00194" lon="6.2002">
        <ele>569.24</ele>
        <time>2020-05-07T16:32:33Z</time>
      </trkpt>
      <trkpt lat="46.00185" lon="6.20006">
        <ele>570.68</ele>
        <time>2020-05-07T16:32:36Z</time>
      </trkpt>
      <trkpt lat="46.00184" lon="6.19991">
        <ele>575.01</ele>
        <time>2020-05-07T16:32:48Z</time>
      </trkpt>
      <trkpt lat="46.00182" lon="6.19992">
        <ele>575.49</ele>
        <time>2020-05-07T16:33:00Z</time>
      </trkpt>
      <trkpt lat="46.00181" lon="6.19993">
        <ele>575.49</ele>
        <time>2020-05-07T16:33:13Z</time>
      </trkpt>
    </trkseg>
  </trk>
</gpx>